sensor_id;sensor_type;location;lat;lon;timestamp;pressure;altitude;pressure_sealevel;temperature;humidity
38616;BME280;24370;51.986;4.666;2023-03-19T00:01:49;101086.50;;;19.31;57.01
38616;BME280;24370;51.986;4.666;2023-03-19T00:04:14;101087.84;;;19.41;56.14
38616;BME280;24370;51.986;4.666;2023-03-19T00:06:41;101090.56;;;18.97;59.27
38616;BME280;24370;51.986;4.666;2023-03-19T00:09:07;101092.22;;;18.77;59.97
38616;BME280;24370;51.986;4.666;2023-03-19T00:11:32;101097.50;;;18.55;60.20
38616;BME280;24370;51.986;4.666;2023-03-19T00:13:58;101098.34;;;18.56;59.62
38616;BME280;24370;51.986;4.666;2023-03-19T00:16:23;101095.78;;;18.76;60.29
38616;BME280;24370;51.986;4.666;2023-03-19T00:18:49;101109.19;;;18.50;59.76
38616;BME280;24370;51.986;4.666;2023-03-19T00:21:14;101108.38;;;18.71;60.45
38616;BME280;24370;51.986;4.666;2023-03-19T00:23:39;101113.78;;;18.90;58.69
38616;BME280;24370;51.986;4.666;2023-03-19T00:26:05;101108.69;;;19.28;56.18
38616;BME280;24370;51.986;4.666;2023-03-19T00:28:31;101110.97;;;18.95;57.45
38616;BME280;24370;51.986;4.666;2023-03-19T00:30:57;101103.09;;;19.36;55.72
38616;BME280;24370;51.986;4.666;2023-03-19T00:33:22;101110.75;;;19.42;55.47
38616;BME280;24370;51.986;4.666;2023-03-19T00:35:47;101105.41;;;19.01;56.38
38616;BME280;24370;51.986;4.666;2023-03-19T00:38:13;101104.06;;;18.91;57.32
38616;BME280;24370;51.986;4.666;2023-03-19T00:40:38;101109.16;;;19.38;55.52
38616;BME280;24370;51.986;4.666;2023-03-19T00:43:04;101110.34;;;19.10;56.53
38616;BME280;24370;51.986;4.666;2023-03-19T00:45:29;101120.16;;;18.85;57.36
38616;BME280;24370;51.986;4.666;2023-03-19T00:47:56;101108.56;;;19.31;56.07
38616;BME280;24370;51.986;4.666;2023-03-19T00:50:22;101130.88;;;18.59;57.49
38616;BME280;24370;51.986;4.666;2023-03-19T00:52:49;101125.16;;;18.70;58.49
38616;BME280;24370;51.986;4.666;2023-03-19T00:55:15;101119.63;;;19.21;55.58
38616;BME280;24370;51.986;4.666;2023-03-19T00:57:40;101123.84;;;18.58;57.97
38616;BME280;24370;51.986;4.666;2023-03-19T01:00:06;101133.69;;;18.07;59.13
38616;BME280;24370;51.986;4.666;2023-03-19T01:02:32;101125.94;;;18.72;55.99
38616;BME280;24370;51.986;4.666;2023-03-19T01:04:58;101121.63;;;18.00;60.11
38616;BME280;24370;51.986;4.666;2023-03-19T01:07:23;101121.97;;;18.84;56.72
38616;BME280;24370;51.986;4.666;2023-03-19T01:09:49;101124.31;;;18.46;56.91
38616;BME280;24370;51.986;4.666;2023-03-19T01:12:14;101129.84;;;17.91;60.84
38616;BME280;24370;51.986;4.666;2023-03-19T01:14:39;101120.16;;;18.62;57.94
38616;BME280;24370;51.986;4.666;2023-03-19T01:17:05;101131.00;;;18.09;60.43
38616;BME280;24370;51.986;4.666;2023-03-19T01:19:31;101123.47;;;17.46;63.39
38616;BME280;24370;51.986;4.666;2023-03-19T01:21:56;101130.47;;;17.99;59.59
38616;BME280;24370;51.986;4.666;2023-03-19T01:24:22;101128.47;;;18.29;60.59
38616;BME280;24370;51.986;4.666;2023-03-19T01:26:47;101126.22;;;18.19;58.86
38616;BME280;24370;51.986;4.666;2023-03-19T01:29:12;101117.31;;;18.91;57.60
38616;BME280;24370;51.986;4.666;2023-03-19T01:31:38;101127.44;;;19.24;55.85
38616;BME280;24370;51.986;4.666;2023-03-19T01:34:03;101133.47;;;18.37;58.22
38616;BME280;24370;51.986;4.666;2023-03-19T01:36:29;101128.09;;;19.08;57.14
38616;BME280;24370;51.986;4.666;2023-03-19T01:38:55;101135.53;;;18.53;58.45
38616;BME280;24370;51.986;4.666;2023-03-19T01:41:22;101134.06;;;18.22;57.47
38616;BME280;24370;51.986;4.666;2023-03-19T01:43:47;101124.84;;;17.58;59.15
38616;BME280;24370;51.986;4.666;2023-03-19T01:46:33;101128.97;;;16.85;63.84
38616;BME280;24370;51.986;4.666;2023-03-19T01:49:04;101136.00;;;16.86;62.60
38616;BME280;24370;51.986;4.666;2023-03-19T01:51:39;101131.59;;;17.15;63.27
38616;BME280;24370;51.986;4.666;2023-03-19T01:54:09;101128.63;;;16.97;61.68
38616;BME280;24370;51.986;4.666;2023-03-19T01:56:37;101135.44;;;18.08;57.31
38616;BME280;24370;51.986;4.666;2023-03-19T01:59:29;101137.03;;;17.62;58.76
38616;BME280;24370;51.986;4.666;2023-03-19T02:02:01;101135.31;;;18.11;55.99
38616;BME280;24370;51.986;4.666;2023-03-19T02:04:31;101129.56;;;18.24;54.51
38616;BME280;24370;51.986;4.666;2023-03-19T02:06:59;101137.69;;;16.58;62.11
38616;BME280;24370;51.986;4.666;2023-03-19T02:09:28;101122.78;;;17.93;56.51
38616;BME280;24370;51.986;4.666;2023-03-19T02:11:54;101128.66;;;18.01;54.83
38616;BME280;24370;51.986;4.666;2023-03-19T02:14:20;101128.31;;;17.33;58.53
38616;BME280;24370;51.986;4.666;2023-03-19T02:16:46;101143.06;;;17.13;58.94
38616;BME280;24370;51.986;4.666;2023-03-19T02:19:21;101139.25;;;17.74;57.35
38616;BME280;24370;51.986;4.666;2023-03-19T02:21:51;101140.94;;;17.50;59.30
38616;BME280;24370;51.986;4.666;2023-03-19T02:24:29;101139.56;;;17.92;56.16
38616;BME280;24370;51.986;4.666;2023-03-19T02:26:56;101137.44;;;18.25;57.04
38616;BME280;24370;51.986;4.666;2023-03-19T02:29:22;101144.59;;;17.98;56.11
38616;BME280;24370;51.986;4.666;2023-03-19T02:31:48;101141.28;;;18.40;55.53
38616;BME280;24370;51.986;4.666;2023-03-19T02:36:56;101149.13;;;17.16;59.72
38616;BME280;24370;51.986;4.666;2023-03-19T02:39:37;101148.09;;;17.73;58.95
38616;BME280;24370;51.986;4.666;2023-03-19T02:42:06;101147.06;;;18.28;57.17
38616;BME280;24370;51.986;4.666;2023-03-19T02:44:32;101145.00;;;17.86;58.01
38616;BME280;24370;51.986;4.666;2023-03-19T02:46:58;101139.44;;;18.19;55.46
38616;BME280;24370;51.986;4.666;2023-03-19T02:49:23;101148.47;;;16.81;62.45
38616;BME280;24370;51.986;4.666;2023-03-19T02:51:49;101149.94;;;16.61;62.99
38616;BME280;24370;51.986;4.666;2023-03-19T02:54:15;101149.66;;;17.27;62.77
38616;BME280;24370;51.986;4.666;2023-03-19T02:56:41;101147.94;;;16.98;60.81
38616;BME280;24370;51.986;4.666;2023-03-19T02:59:06;101153.66;;;17.91;58.40
38616;BME280;24370;51.986;4.666;2023-03-19T03:01:32;101148.28;;;17.94;57.07
38616;BME280;24370;51.986;4.666;2023-03-19T03:03:57;101149.00;;;18.23;55.79
38616;BME280;24370;51.986;4.666;2023-03-19T03:06:23;101152.97;;;16.77;60.83
38616;BME280;24370;51.986;4.666;2023-03-19T03:08:48;101147.50;;;17.11;58.78
38616;BME280;24370;51.986;4.666;2023-03-19T03:11:13;101149.06;;;16.90;58.89
38616;BME280;24370;51.986;4.666;2023-03-19T03:13:39;101150.19;;;16.82;59.89
38616;BME280;24370;51.986;4.666;2023-03-19T03:16:05;101135.84;;;17.19;58.97
38616;BME280;24370;51.986;4.666;2023-03-19T03:18:30;101138.78;;;17.36;57.15
38616;BME280;24370;51.986;4.666;2023-03-19T03:20:56;101141.09;;;17.72;55.86
38616;BME280;24370;51.986;4.666;2023-03-19T03:23:22;101146.09;;;17.28;57.67
38616;BME280;24370;51.986;4.666;2023-03-19T03:25:49;101147.50;;;17.65;56.38
38616;BME280;24370;51.986;4.666;2023-03-19T03:28:14;101157.88;;;16.61;58.46
38616;BME280;24370;51.986;4.666;2023-03-19T03:30:40;101155.34;;;16.56;60.82
38616;BME280;24370;51.986;4.666;2023-03-19T03:33:06;101156.53;;;17.33;57.92
38616;BME280;24370;51.986;4.666;2023-03-19T03:35:31;101145.34;;;17.24;57.60
38616;BME280;24370;51.986;4.666;2023-03-19T03:37:57;101142.00;;;17.71;55.12
38616;BME280;24370;51.986;4.666;2023-03-19T03:40:23;101148.28;;;17.94;55.28
38616;BME280;24370;51.986;4.666;2023-03-19T03:42:49;101147.94;;;18.03;54.19
38616;BME280;24370;51.986;4.666;2023-03-19T03:45:15;101140.28;;;17.70;55.40
38616;BME280;24370;51.986;4.666;2023-03-19T03:47:40;101146.75;;;17.08;57.56
38616;BME280;24370;51.986;4.666;2023-03-19T03:50:06;101145.56;;;16.60;59.30
38616;BME280;24370;51.986;4.666;2023-03-19T03:52:35;101145.00;;;16.78;58.98
38616;BME280;24370;51.986;4.666;2023-03-19T03:55:02;101148.19;;;17.97;54.48
38616;BME280;24370;51.986;4.666;2023-03-19T03:57:30;101144.00;;;18.15;53.34
38616;BME280;24370;51.986;4.666;2023-03-19T03:59:55;101155.25;;;16.89;58.40
38616;BME280;24370;51.986;4.666;2023-03-19T04:02:21;101156.34;;;16.82;59.34
38616;BME280;24370;51.986;4.666;2023-03-19T04:04:46;101159.06;;;16.79;59.19
38616;BME280;24370;51.986;4.666;2023-03-19T04:07:13;101157.94;;;15.26;65.49
38616;BME280;24370;51.986;4.666;2023-03-19T04:09:38;101157.53;;;16.10;61.63
38616;BME280;24370;51.986;4.666;2023-03-19T04:12:04;101162.28;;;16.29;60.46
38616;BME280;24370;51.986;4.666;2023-03-19T04:14:29;101155.38;;;16.55;60.86
38616;BME280;24370;51.986;4.666;2023-03-19T04:16:55;101155.13;;;16.34;61.21
38616;BME280;24370;51.986;4.666;2023-03-19T04:19:20;101159.94;;;16.50;60.23
38616;BME280;24370;51.986;4.666;2023-03-19T04:21:46;101162.13;;;16.95;57.98
38616;BME280;24370;51.986;4.666;2023-03-19T04:24:12;101164.09;;;16.87;56.88
38616;BME280;24370;51.986;4.666;2023-03-19T04:26:38;101165.78;;;16.59;57.54
38616;BME280;24370;51.986;4.666;2023-03-19T04:29:05;101165.03;;;15.93;62.89
38616;BME280;24370;51.986;4.666;2023-03-19T04:31:30;101165.38;;;15.81;61.70
38616;BME280;24370;51.986;4.666;2023-03-19T04:33:56;101161.38;;;16.91;59.23
38616;BME280;24370;51.986;4.666;2023-03-19T04:36:21;101160.44;;;16.62;58.93
38616;BME280;24370;51.986;4.666;2023-03-19T04:38:47;101167.94;;;17.33;55.45
38616;BME280;24370;51.986;4.666;2023-03-19T04:41:13;101172.69;;;16.95;56.20
38616;BME280;24370;51.986;4.666;2023-03-19T04:43:40;101181.78;;;16.55;59.09
38616;BME280;24370;51.986;4.666;2023-03-19T04:46:05;101182.69;;;16.54;59.43
38616;BME280;24370;51.986;4.666;2023-03-19T04:48:32;101185.88;;;16.65;58.02
38616;BME280;24370;51.986;4.666;2023-03-19T04:51:00;101189.78;;;16.52;59.43
38616;BME280;24370;51.986;4.666;2023-03-19T04:53:27;101191.69;;;16.76;58.59
38616;BME280;24370;51.986;4.666;2023-03-19T04:55:53;101191.69;;;16.47;59.46
38616;BME280;24370;51.986;4.666;2023-03-19T04:58:18;101198.41;;;16.27;60.43
38616;BME280;24370;51.986;4.666;2023-03-19T05:00:44;101196.91;;;16.17;60.52
38616;BME280;24370;51.986;4.666;2023-03-19T05:03:12;101196.78;;;15.90;61.65
38616;BME280;24370;51.986;4.666;2023-03-19T05:05:37;101196.34;;;16.68;59.23
38616;BME280;24370;51.986;4.666;2023-03-19T05:08:03;101206.81;;;16.71;58.84
38616;BME280;24370;51.986;4.666;2023-03-19T05:10:28;101204.69;;;16.83;58.42
38616;BME280;24370;51.986;4.666;2023-03-19T05:12:54;101195.88;;;16.84;56.92
38616;BME280;24370;51.986;4.666;2023-03-19T05:15:19;101205.38;;;16.59;58.63
38616;BME280;24370;51.986;4.666;2023-03-19T05:17:45;101211.94;;;17.06;56.95
38616;BME280;24370;51.986;4.666;2023-03-19T05:20:11;101198.13;;;17.79;54.26
38616;BME280;24370;51.986;4.666;2023-03-19T05:22:37;101201.03;;;16.90;55.17
38616;BME280;24370;51.986;4.666;2023-03-19T05:25:03;101205.38;;;17.46;54.12
38616;BME280;24370;51.986;4.666;2023-03-19T05:27:29;101212.63;;;18.20;52.62
38616;BME280;24370;51.986;4.666;2023-03-19T05:29:54;101218.53;;;17.49;53.08
38616;BME280;24370;51.986;4.666;2023-03-19T05:32:19;101221.03;;;17.79;54.22
38616;BME280;24370;51.986;4.666;2023-03-19T05:34:45;101216.84;;;17.46;55.27
38616;BME280;24370;51.986;4.666;2023-03-19T05:37:11;101227.81;;;17.34;55.54
38616;BME280;24370;51.986;4.666;2023-03-19T05:39:36;101231.94;;;17.15;56.10
38616;BME280;24370;51.986;4.666;2023-03-19T05:42:01;101238.94;;;16.56;57.85
38616;BME280;24370;51.986;4.666;2023-03-19T05:44:27;101239.34;;;17.85;54.67
38616;BME280;24370;51.986;4.666;2023-03-19T05:46:52;101248.66;;;17.43;53.32
38616;BME280;24370;51.986;4.666;2023-03-19T05:49:18;101244.19;;;17.72;54.29
38616;BME280;24370;51.986;4.666;2023-03-19T05:51:43;101251.25;;;17.17;55.96
38616;BME280;24370;51.986;4.666;2023-03-19T05:54:09;101249.84;;;17.33;55.72
38616;BME280;24370;51.986;4.666;2023-03-19T05:56:34;101258.81;;;16.99;55.69
38616;BME280;24370;51.986;4.666;2023-03-19T05:59:00;101260.28;;;16.47;58.91
38616;BME280;24370;51.986;4.666;2023-03-19T06:01:26;101263.53;;;17.18;57.69
38616;BME280;24370;51.986;4.666;2023-03-19T06:03:51;101274.47;;;15.73;61.05
38616;BME280;24370;51.986;4.666;2023-03-19T06:06:16;101265.44;;;16.20;60.36
38616;BME280;24370;51.986;4.666;2023-03-19T06:08:42;101262.72;;;15.88;62.02
38616;BME280;24370;51.986;4.666;2023-03-19T06:11:07;101268.69;;;15.20;63.89
38616;BME280;24370;51.986;4.666;2023-03-19T06:13:33;101260.16;;;16.20;59.83
38616;BME280;24370;51.986;4.666;2023-03-19T06:15:58;101256.59;;;16.84;58.19
38616;BME280;24370;51.986;4.666;2023-03-19T06:18:24;101252.56;;;17.02;57.83
38616;BME280;24370;51.986;4.666;2023-03-19T06:20:49;101259.81;;;16.32;60.36
38616;BME280;24370;51.986;4.666;2023-03-19T06:23:15;101263.13;;;16.39;61.02
38616;BME280;24370;51.986;4.666;2023-03-19T06:25:40;101270.50;;;16.59;58.81
38616;BME280;24370;51.986;4.666;2023-03-19T06:28:05;101272.78;;;16.71;58.44
38616;BME280;24370;51.986;4.666;2023-03-19T06:30:32;101275.91;;;17.16;56.34
38616;BME280;24370;51.986;4.666;2023-03-19T06:32:57;101277.31;;;16.66;58.50
38616;BME280;24370;51.986;4.666;2023-03-19T06:35:23;101291.66;;;15.90;64.17
38616;BME280;24370;51.986;4.666;2023-03-19T06:37:48;101296.19;;;16.19;60.36
38616;BME280;24370;51.986;4.666;2023-03-19T06:40:14;101290.06;;;16.83;58.48
38616;BME280;24370;51.986;4.666;2023-03-19T06:42:43;101297.53;;;16.01;61.99
38616;BME280;24370;51.986;4.666;2023-03-19T06:45:09;101297.44;;;16.70;58.37
38616;BME280;24370;51.986;4.666;2023-03-19T06:47:34;101295.13;;;16.91;58.21
38616;BME280;24370;51.986;4.666;2023-03-19T06:50:00;101295.66;;;17.32;56.72
38616;BME280;24370;51.986;4.666;2023-03-19T06:52:25;101299.84;;;16.14;59.29
38616;BME280;24370;51.986;4.666;2023-03-19T06:54:51;101303.31;;;16.82;58.96
38616;BME280;24370;51.986;4.666;2023-03-19T06:57:16;101302.53;;;17.94;54.78
38616;BME280;24370;51.986;4.666;2023-03-19T06:59:41;101307.13;;;17.03;57.43
38616;BME280;24370;51.986;4.666;2023-03-19T07:02:10;101312.72;;;17.50;54.82
38616;BME280;24370;51.986;4.666;2023-03-19T07:04:35;101317.78;;;17.58;56.18
38616;BME280;24370;51.986;4.666;2023-03-19T07:07:00;101316.75;;;16.72;57.44
38616;BME280;24370;51.986;4.666;2023-03-19T07:09:26;101323.59;;;16.47;59.83
38616;BME280;24370;51.986;4.666;2023-03-19T07:11:52;101326.47;;;17.33;57.50
38616;BME280;24370;51.986;4.666;2023-03-19T07:14:17;101325.78;;;16.96;57.75
38616;BME280;24370;51.986;4.666;2023-03-19T07:16:42;101333.16;;;17.15;58.29
38616;BME280;24370;51.986;4.666;2023-03-19T07:19:08;101331.66;;;16.42;61.93
38616;BME280;24370;51.986;4.666;2023-03-19T07:21:33;101325.34;;;16.48;61.53
38616;BME280;24370;51.986;4.666;2023-03-19T07:23:58;101335.28;;;16.03;63.13
38616;BME280;24370;51.986;4.666;2023-03-19T07:26:24;101329.53;;;16.22;62.54
38616;BME280;24370;51.986;4.666;2023-03-19T07:28:49;101332.13;;;17.21;58.12
38616;BME280;24370;51.986;4.666;2023-03-19T07:31:15;101333.59;;;17.31;57.65
38616;BME280;24370;51.986;4.666;2023-03-19T07:33:41;101331.69;;;17.35;58.24
38616;BME280;24370;51.986;4.666;2023-03-19T07:36:06;101344.78;;;17.09;59.19
38616;BME280;24370;51.986;4.666;2023-03-19T07:38:32;101340.16;;;17.74;57.40
38616;BME280;24370;51.986;4.666;2023-03-19T07:40:57;101331.34;;;18.02;55.79
38616;BME280;24370;51.986;4.666;2023-03-19T07:43:23;101349.19;;;17.97;56.63
38616;BME280;24370;51.986;4.666;2023-03-19T07:45:48;101346.13;;;16.93;58.07
38616;BME280;24370;51.986;4.666;2023-03-19T07:48:13;101354.44;;;17.40;56.48
38616;BME280;24370;51.986;4.666;2023-03-19T07:50:39;101346.22;;;18.33;54.55
38616;BME280;24370;51.986;4.666;2023-03-19T07:53:04;101361.94;;;17.83;55.33
38616;BME280;24370;51.986;4.666;2023-03-19T07:55:30;101359.44;;;18.06;54.49
38616;BME280;24370;51.986;4.666;2023-03-19T07:57:55;101360.16;;;18.11;53.58
38616;BME280;24370;51.986;4.666;2023-03-19T08:00:21;101373.28;;;17.86;54.80
38616;BME280;24370;51.986;4.666;2023-03-19T08:02:46;101361.19;;;18.34;53.33
38616;BME280;24370;51.986;4.666;2023-03-19T08:05:12;101371.75;;;18.07;54.37
38616;BME280;24370;51.986;4.666;2023-03-19T08:07:37;101369.31;;;18.01;55.81
38616;BME280;24370;51.986;4.666;2023-03-19T08:10:04;101370.16;;;17.73;55.17
38616;BME280;24370;51.986;4.666;2023-03-19T08:12:30;101377.22;;;17.15;56.14
38616;BME280;24370;51.986;4.666;2023-03-19T08:14:56;101373.41;;;18.37;54.50
38616;BME280;24370;51.986;4.666;2023-03-19T08:17:21;101385.28;;;16.75;59.49
38616;BME280;24370;51.986;4.666;2023-03-19T08:19:46;101386.38;;;16.68;60.88
38616;BME280;24370;51.986;4.666;2023-03-19T08:22:12;101396.22;;;15.91;63.43
38616;BME280;24370;51.986;4.666;2023-03-19T08:24:37;101402.47;;;15.87;63.87
38616;BME280;24370;51.986;4.666;2023-03-19T08:27:03;101400.78;;;16.55;60.67
38616;BME280;24370;51.986;4.666;2023-03-19T08:29:28;101393.19;;;17.10;58.12
38616;BME280;24370;51.986;4.666;2023-03-19T08:31:54;101393.34;;;17.35;57.84
38616;BME280;24370;51.986;4.666;2023-03-19T08:34:21;101397.13;;;18.13;55.45
38616;BME280;24370;51.986;4.666;2023-03-19T08:36:47;101407.69;;;17.56;56.87
38616;BME280;24370;51.986;4.666;2023-03-19T08:39:13;101399.91;;;17.22;57.25
38616;BME280;24370;51.986;4.666;2023-03-19T08:41:39;101406.38;;;18.00;54.92
38616;BME280;24370;51.986;4.666;2023-03-19T08:44:04;101410.41;;;16.92;60.58
38616;BME280;24370;51.986;4.666;2023-03-19T08:46:30;101412.38;;;17.76;55.98
38616;BME280;24370;51.986;4.666;2023-03-19T08:48:55;101412.66;;;17.37;57.68
38616;BME280;24370;51.986;4.666;2023-03-19T08:51:21;101414.41;;;17.38;58.25
38616;BME280;24370;51.986;4.666;2023-03-19T08:53:49;101419.06;;;16.97;59.42
38616;BME280;24370;51.986;4.666;2023-03-19T08:56:15;101416.56;;;18.12;55.00
38616;BME280;24370;51.986;4.666;2023-03-19T08:58:40;101419.19;;;18.40;53.52
38616;BME280;24370;51.986;4.666;2023-03-19T09:01:09;101421.63;;;17.90;54.41
38616;BME280;24370;51.986;4.666;2023-03-19T09:03:38;101425.66;;;17.13;55.58
38616;BME280;24370;51.986;4.666;2023-03-19T09:06:06;101423.59;;;17.85;54.13
38616;BME280;24370;51.986;4.666;2023-03-19T09:08:32;101428.41;;;17.40;54.37
38616;BME280;24370;51.986;4.666;2023-03-19T09:10:58;101426.25;;;18.40;52.87
38616;BME280;24370;51.986;4.666;2023-03-19T09:13:24;101424.22;;;18.73;52.96
38616;BME280;24370;51.986;4.666;2023-03-19T09:15:49;101434.13;;;18.95;51.45
38616;BME280;24370;51.986;4.666;2023-03-19T09:18:15;101436.16;;;18.60;51.87
38616;BME280;24370;51.986;4.666;2023-03-19T09:20:42;101438.44;;;18.97;51.90
38616;BME280;24370;51.986;4.666;2023-03-19T09:23:07;101445.91;;;18.85;51.83
38616;BME280;24370;51.986;4.666;2023-03-19T09:25:33;101448.75;;;17.68;54.73
38616;BME280;24370;51.986;4.666;2023-03-19T09:27:59;101437.72;;;18.65;53.42
38616;BME280;24370;51.986;4.666;2023-03-19T09:30:25;101445.31;;;18.76;52.30
38616;BME280;24370;51.986;4.666;2023-03-19T09:32:51;101450.13;;;17.52;54.63
38616;BME280;24370;51.986;4.666;2023-03-19T09:35:16;101439.28;;;18.98;51.99
38616;BME280;24370;51.986;4.666;2023-03-19T09:37:42;101437.28;;;19.54;50.63
38616;BME280;24370;51.986;4.666;2023-03-19T09:40:19;101443.03;;;19.41;49.60
38616;BME280;24370;51.986;4.666;2023-03-19T09:45:31;101463.03;;;18.74;51.10
38616;BME280;24370;51.986;4.666;2023-03-19T09:48:00;101458.53;;;18.23;52.46
38616;BME280;24370;51.986;4.666;2023-03-19T09:50:30;101471.81;;;19.27;51.01
38616;BME280;24370;51.986;4.666;2023-03-19T09:53:24;101473.53;;;18.77;51.61
38616;BME280;24370;51.986;4.666;2023-03-19T09:55:56;101480.88;;;18.96;50.16
38616;BME280;24370;51.986;4.666;2023-03-19T09:58:30;101484.03;;;19.31;50.42
38616;BME280;24370;51.986;4.666;2023-03-19T10:00:57;101486.44;;;19.13;50.22
38616;BME280;24370;51.986;4.666;2023-03-19T10:03:40;101493.41;;;19.65;48.81
38616;BME280;24370;51.986;4.666;2023-03-19T10:06:29;101502.88;;;18.98;50.90
38616;BME280;24370;51.986;4.666;2023-03-19T10:09:19;101497.88;;;19.39;50.05
38616;BME280;24370;51.986;4.666;2023-03-19T10:12:01;101503.38;;;18.82;51.63
38616;BME280;24370;51.986;4.666;2023-03-19T10:17:33;101499.94;;;19.31;49.98
38616;BME280;24370;51.986;4.666;2023-03-19T10:20:11;101501.69;;;19.32;49.09
38616;BME280;24370;51.986;4.666;2023-03-19T10:22:44;101494.59;;;19.07;50.53
38616;BME280;24370;51.986;4.666;2023-03-19T10:25:19;101494.50;;;19.59;49.67
38616;BME280;24370;51.986;4.666;2023-03-19T10:27:51;101505.34;;;20.00;47.85
38616;BME280;24370;51.986;4.666;2023-03-19T10:30:19;101509.25;;;19.18;49.81
38616;BME280;24370;51.986;4.666;2023-03-19T10:32:50;101505.34;;;20.45;46.77
38616;BME280;24370;51.986;4.666;2023-03-19T10:35:23;101511.28;;;20.29;47.15
38616;BME280;24370;51.986;4.666;2023-03-19T10:37:53;101511.56;;;19.76;47.25
38616;BME280;24370;51.986;4.666;2023-03-19T10:40:25;101515.34;;;20.16;47.60
38616;BME280;24370;51.986;4.666;2023-03-19T10:43:21;101518.78;;;19.96;47.88
38616;BME280;24370;51.986;4.666;2023-03-19T10:45:49;101527.19;;;19.60;48.66
38616;BME280;24370;51.986;4.666;2023-03-19T10:48:16;101530.44;;;20.15;47.48
38616;BME280;24370;51.986;4.666;2023-03-19T10:50:55;101531.91;;;19.52;48.68
38616;BME280;24370;51.986;4.666;2023-03-19T10:53:30;101533.69;;;19.26;50.21
38616;BME280;24370;51.986;4.666;2023-03-19T10:56:20;101525.34;;;20.09;48.36
38616;BME280;24370;51.986;4.666;2023-03-19T10:59:06;101535.22;;;18.53;51.96
38616;BME280;24370;51.986;4.666;2023-03-19T11:01:44;101532.69;;;18.50;51.85
38616;BME280;24370;51.986;4.666;2023-03-19T11:04:20;101541.03;;;18.64;52.21
38616;BME280;24370;51.986;4.666;2023-03-19T11:06:51;101541.59;;;19.53;49.70
38616;BME280;24370;51.986;4.666;2023-03-19T11:09:32;101537.78;;;18.56;51.67
38616;BME280;24370;51.986;4.666;2023-03-19T11:14:49;101528.53;;;19.95;48.36
38616;BME280;24370;51.986;4.666;2023-03-19T11:19:57;101532.34;;;19.88;49.11
38616;BME280;24370;51.986;4.666;2023-03-19T11:22:26;101531.13;;;19.48;48.75
38616;BME280;24370;51.986;4.666;2023-03-19T11:24:55;101540.06;;;18.95;51.08
38616;BME280;24370;51.986;4.666;2023-03-19T11:27:29;101540.00;;;19.96;49.40
38616;BME280;24370;51.986;4.666;2023-03-19T11:29:55;101538.59;;;19.62;49.08
38616;BME280;24370;51.986;4.666;2023-03-19T11:32:26;101537.09;;;20.70;48.03
38616;BME280;24370;51.986;4.666;2023-03-19T11:35:10;101539.69;;;20.94;47.09
38616;BME280;24370;51.986;4.666;2023-03-19T11:37:58;101541.31;;;21.17;46.51
38616;BME280;24370;51.986;4.666;2023-03-19T11:51:45;101544.75;;;20.33;47.45
38616;BME280;24370;51.986;4.666;2023-03-19T12:00:05;101555.28;;;19.89;48.75
38616;BME280;24370;51.986;4.666;2023-03-19T12:02:56;101549.38;;;21.57;45.84
38616;BME280;24370;51.986;4.666;2023-03-19T12:05:32;101543.13;;;21.58;44.70
38616;BME280;24370;51.986;4.666;2023-03-19T12:28:25;101538.88;;;21.54;44.52
38616;BME280;24370;51.986;4.666;2023-03-19T12:36:02;101538.53;;;22.18;43.68
38616;BME280;24370;51.986;4.666;2023-03-19T12:38:40;101543.47;;;22.64;42.78
38616;BME280;24370;51.986;4.666;2023-03-19T12:41:10;101543.59;;;23.15;40.63
38616;BME280;24370;51.986;4.666;2023-03-19T12:46:22;101549.22;;;22.74;41.72
38616;BME280;24370;51.986;4.666;2023-03-19T12:48:53;101548.94;;;23.33;40.64
38616;BME280;24370;51.986;4.666;2023-03-19T12:51:24;101551.84;;;23.62;39.97
38616;BME280;24370;51.986;4.666;2023-03-19T12:53:57;101556.47;;;23.92;38.38
38616;BME280;24370;51.986;4.666;2023-03-19T12:59:17;101558.00;;;23.11;39.52
38616;BME280;24370;51.986;4.666;2023-03-19T13:01:49;101556.03;;;22.43;41.01
38616;BME280;24370;51.986;4.666;2023-03-19T13:04:22;101564.81;;;22.07;41.52
38616;BME280;24370;51.986;4.666;2023-03-19T13:06:52;101557.69;;;22.82;40.78
38616;BME280;24370;51.986;4.666;2023-03-19T13:12:21;101579.03;;;21.27;43.13
38616;BME280;24370;51.986;4.666;2023-03-19T13:14:57;101587.84;;;21.48;42.73
38616;BME280;24370;51.986;4.666;2023-03-19T13:20:12;101583.78;;;20.98;43.58
38616;BME280;24370;51.986;4.666;2023-03-19T13:22:43;101585.94;;;21.10;43.58
38616;BME280;24370;51.986;4.666;2023-03-19T13:25:15;101591.91;;;21.36;43.79
38616;BME280;24370;51.986;4.666;2023-03-19T13:27:42;101582.06;;;20.97;43.63
38616;BME280;24370;51.986;4.666;2023-03-19T13:32:39;101580.47;;;20.25;45.19
38616;BME280;24370;51.986;4.666;2023-03-19T13:38:03;101575.31;;;21.31;42.53
38616;BME280;24370;51.986;4.666;2023-03-19T13:40:51;101584.84;;;20.94;43.47
38616;BME280;24370;51.986;4.666;2023-03-19T13:51:02;101586.72;;;20.24;43.80
38616;BME280;24370;51.986;4.666;2023-03-19T13:55:57;101593.19;;;20.84;43.47
38616;BME280;24370;51.986;4.666;2023-03-19T13:58:27;101592.59;;;20.08;44.94
38616;BME280;24370;51.986;4.666;2023-03-19T14:01:34;101600.63;;;20.76;44.20
38616;BME280;24370;51.986;4.666;2023-03-19T14:07:25;101606.34;;;20.20;44.06
38616;BME280;24370;51.986;4.666;2023-03-19T14:14:53;101605.56;;;20.86;43.37
38616;BME280;24370;51.986;4.666;2023-03-19T14:17:32;101611.94;;;20.12;43.79
38616;BME280;24370;51.986;4.666;2023-03-19T14:28:23;101618.09;;;20.36;44.92
38616;BME280;24370;51.986;4.666;2023-03-19T14:30:52;101627.84;;;18.82;47.77
38616;BME280;24370;51.986;4.666;2023-03-19T14:33:26;101620.13;;;19.30;48.16
38616;BME280;24370;51.986;4.666;2023-03-19T14:35:52;101615.25;;;19.68;46.61